Airfield :
LOGIN :

Register | Disclaimer

   EN    FR    IT 

 










Legend :    VFR   Marginal VFR   IFR   Intensive IFR   Very Intensive IFR
Visi :
Ceiling :
>= 8 km
>= 3000ft
5 to 8 km
1000 to 3000 ft
1500m to 5 km
500 to 1000 ft
800 to 1500m
200 to 500 ft
< 800m
< 200 ft
Symbols :   Thunderstorms  Fog  Heavy snow  Heavy precipitations  Wind > 20 kt
SIGMETs :     Misc.  Thunderstorms  Icing  Turbulence  Mountain Waves  Volcanic Ashes







- Airport Elevation : 158 ft
- IATA code : QAR


EHDL - Deelen Airbase

CURRENT METAR :
  • 230225Z AUTO 27003KT 240V300 3000 BR OVC013 08/06 Q1027 YLO

EXPIRED METARs :
  • 230155Z AUTO 25003KT 220V300 2700 BR OVC014 07/06 Q1027 YLO
  • 230125Z AUTO 26003KT 250V340 2500 BR OVC012 07/06 Q1027 YLO
  • 230055Z AUTO 29005KT 240V350 2300 BR FEW006 SCT007 OVC010 07/06 Q1027 YLO
  • 230025Z AUTO 30004KT 260V350 2200 BR BKN004 OVC006 07/06 Q1027 YLO
  • 222355Z AUTO 31007KT 260V010 2100 BR OVC004 07/06 Q1027 YLO

Expired Forecast.
No reported NOTAMs for that airfield.



MET'MAP, your aeronautical weather chart ! - Copyright ORBIFLY December 2007 - Disclaimer

ORBIFLY MET'MAP TEAM :

Programming & Development : Alexandra Zaïnal
Concept & Development : Baudouin d'Aumeries
Co-Development & Prog : Marc-Olivier Méhu
Technical & hardware support : Manuel Goepfert

Contact : metmap@orbifly.com




SOURCES & CREDITS :

   NOAA